createdAt,value
2023-05-12T00:01:51.938Z,134967.81
2023-05-12T00:06:56.093Z,134898.31
2023-05-12T00:11:58.792Z,134892.06
2023-05-12T00:17:01.519Z,134876.34
2023-05-12T00:22:06.229Z,135265.47
2023-05-12T00:27:08.969Z,135227.13
2023-05-12T00:32:11.656Z,135266.22
2023-05-12T00:37:15.710Z,135361.44
2023-05-12T00:42:18.410Z,135429.13
2023-05-12T00:47:21.617Z,135782.19
2023-05-12T00:52:25.695Z,135432.31
2023-05-12T00:57:28.596Z,135196.34
2023-05-12T01:02:32.192Z,134862.00
2023-05-12T01:07:37.041Z,134812.75
2023-05-12T01:12:39.853Z,134507.81
2023-05-12T01:17:48.410Z,134320.97
2023-05-12T01:22:52.984Z,134273.50
2023-05-12T01:27:57.596Z,134185.75
2023-05-12T01:33:00.533Z,134436.94
2023-05-12T01:38:04.204Z,134536.88
2023-05-12T01:43:10.873Z,134951.78
2023-05-12T01:48:13.576Z,135697.84
2023-05-12T01:53:17.147Z,135779.47
2023-05-12T01:58:21.252Z,135840.19
2023-05-12T02:03:24.842Z,136082.97
2023-05-12T02:08:27.944Z,135848.19
2023-05-12T02:13:32.273Z,135807.38
2023-05-12T02:18:35.209Z,135264.66
2023-05-12T02:23:40.632Z,135198.84
2023-05-12T02:28:45.001Z,134969.78
2023-05-12T02:33:48.451Z,134921.75
2023-05-12T02:38:51.253Z,135137.06
2023-05-12T02:43:55.883Z,135101.44
2023-05-12T02:48:58.722Z,135297.19
2023-05-12T02:54:01.526Z,135407.25
2023-05-12T02:59:05.672Z,135286.50
2023-05-12T03:04:08.435Z,135550.47
2023-05-12T03:09:11.408Z,135340.47
2023-05-12T03:14:15.578Z,134572.13
2023-05-12T03:19:18.661Z,134439.91
2023-05-12T03:24:21.427Z,133981.97
2023-05-12T03:29:25.575Z,133620.16
2023-05-12T03:34:28.706Z,133587.50
2023-05-12T03:39:34.359Z,133089.63
2023-05-12T03:44:38.710Z,133013.59
2023-05-12T03:49:41.596Z,132905.97
2023-05-12T03:54:44.576Z,132258.66
2023-05-12T03:59:48.715Z,132361.16
2023-05-12T04:04:51.894Z,132041.38
2023-05-12T04:09:54.619Z,131687.91
2023-05-12T04:14:59.899Z,131664.84
2023-05-12T04:20:02.865Z,131313.38
2023-05-12T04:25:06.188Z,130914.75
2023-05-12T04:30:11.040Z,130875.78
2023-05-12T04:35:16.546Z,130455.72
2023-05-12T04:40:19.875Z,130441.06
2023-05-12T04:45:24.233Z,130365.06
2023-05-12T04:50:28.488Z,129980.91
2023-05-12T04:55:31.974Z,129791.66
2023-05-12T05:00:36.233Z,129572.81
2023-05-12T05:05:39.238Z,129131.19
2023-05-12T05:10:42.038Z,128731.78
2023-05-12T05:15:52.234Z,128491.09
2023-05-12T05:20:58.889Z,128253.00
2023-05-12T05:26:02.407Z,127634.34
2023-05-12T05:31:06.847Z,127142.38
2023-05-12T05:36:10.852Z,126858.22
2023-05-12T05:41:14.392Z,126310.66
2023-05-12T05:46:18.691Z,125889.03
2023-05-12T05:51:21.581Z,125558.19
2023-05-12T05:56:24.641Z,125561.72
2023-05-12T06:01:28.924Z,124670.91
2023-05-12T06:06:31.711Z,124204.69
2023-05-12T06:11:35.918Z,123558.38
2023-05-12T06:16:40.344Z,122174.78
2023-05-12T06:21:43.929Z,121310.38
2023-05-12T06:26:46.632Z,120692.31
2023-05-12T06:31:51.074Z,119964.63
2023-05-12T06:36:55.003Z,119247.13
2023-05-12T06:41:58.056Z,118594.72
2023-05-12T06:47:02.158Z,117932.19
2023-05-12T06:52:05.238Z,117168.25
2023-05-12T06:57:08.025Z,116703.66
2023-05-12T07:02:12.430Z,115628.03
2023-05-12T07:07:15.239Z,114827.81
2023-05-12T07:12:17.910Z,113935.91
2023-05-12T07:17:22.383Z,113001.22
2023-05-12T07:22:25.216Z,112272.84
2023-05-12T07:27:27.900Z,111497.63
2023-05-12T07:32:31.994Z,110619.31
2023-05-12T07:37:34.719Z,110023.84
2023-05-12T07:42:37.438Z,109488.38
2023-05-12T07:47:42.104Z,108867.47
2023-05-12T07:52:49.883Z,108471.97
2023-05-12T07:57:52.602Z,108073.31
2023-05-12T08:02:56.850Z,107567.78
2023-05-12T08:07:59.770Z,107085.63
2023-05-12T08:13:02.473Z,106679.56
2023-05-12T08:18:06.650Z,106393.13
2023-05-12T08:23:09.460Z,105938.81
2023-05-12T08:28:12.873Z,105467.81
2023-05-12T08:33:16.999Z,104947.06
2023-05-12T08:38:19.772Z,104533.75
2023-05-12T08:43:25.883Z,104116.59
2023-05-12T08:48:30.512Z,103761.88
2023-05-12T08:53:34.625Z,103372.03
2023-05-12T08:58:40.983Z,102955.44
2023-05-12T09:03:46.590Z,102686.13
2023-05-12T09:08:49.415Z,102437.63
2023-05-12T09:14:02.648Z,102327.31
2023-05-12T09:19:07.466Z,102113.97
2023-05-12T09:24:10.227Z,101928.72
2023-05-12T09:29:20.775Z,101853.19
2023-05-12T09:34:35.649Z,101738.00
2023-05-12T09:39:38.566Z,101667.22
2023-05-12T09:44:41.999Z,101608.50
2023-05-12T09:49:52.820Z,101554.56
2023-05-12T09:54:55.771Z,101587.53
2023-05-12T09:59:58.632Z,101524.88
2023-05-12T10:05:07.152Z,101543.53
2023-05-12T10:10:10.850Z,101467.53
2023-05-12T10:15:14.710Z,101429.59
2023-05-12T10:20:19.499Z,101398.84
2023-05-12T10:25:23.357Z,101427.50
2023-05-12T10:30:26.178Z,101384.75
2023-05-12T10:35:37.756Z,101341.38
2023-05-12T10:40:52.695Z,101300.44
2023-05-12T10:46:11.383Z,101286.22
2023-05-12T10:51:20.661Z,101246.13
2023-05-12T10:56:25.191Z,101268.91
2023-05-12T11:01:28.803Z,101181.56
2023-05-12T11:06:34.267Z,101239.13
2023-05-12T11:11:38.313Z,101218.53
2023-05-12T11:16:44.091Z,101208.06
2023-05-12T11:21:49.142Z,101259.88
2023-05-12T11:26:52.250Z,101229.94
2023-05-12T11:31:55.272Z,101211.81
2023-05-12T11:36:59.471Z,101153.53
2023-05-12T11:42:12.266Z,101209.75
2023-05-12T11:47:17.272Z,101191.06
2023-05-12T11:52:23.577Z,101153.28
2023-05-12T11:57:26.983Z,101143.47
2023-05-12T12:02:29.950Z,101184.75
2023-05-12T12:07:35.130Z,101174.44
2023-05-12T12:12:37.845Z,101163.53
2023-05-12T12:17:41.058Z,101128.47
2023-05-12T12:22:45.212Z,101126.63
2023-05-12T12:27:48.155Z,101124.03
2023-05-12T12:32:50.877Z,101106.69
2023-05-12T12:37:55.390Z,101080.78
2023-05-12T12:42:58.119Z,101075.41
2023-05-12T12:48:00.872Z,101033.38
2023-05-12T12:53:04.985Z,100977.53
2023-05-12T12:58:07.712Z,100908.09
2023-05-12T13:03:10.484Z,100892.06
2023-05-12T13:08:14.640Z,100877.91
2023-05-12T13:13:17.384Z,100876.16
2023-05-12T13:18:20.649Z,100855.53
2023-05-12T13:23:24.837Z,100851.16
2023-05-12T13:28:27.555Z,100844.50
2023-05-12T13:33:30.262Z,100825.03
2023-05-12T13:38:34.811Z,100840.59
2023-05-12T13:43:37.537Z,100846.72
2023-05-12T13:48:40.749Z,100837.97
2023-05-12T13:53:44.847Z,100800.59
2023-05-12T13:58:50.635Z,100774.41
2023-05-12T14:03:53.325Z,100752.72
2023-05-12T14:08:57.354Z,100749.44
2023-05-12T14:14:01.020Z,100738.94
2023-05-12T14:19:03.911Z,100740.88
2023-05-12T14:24:08.784Z,100741.91
2023-05-12T14:29:11.523Z,100737.50
2023-05-12T14:34:14.357Z,100740.22
2023-05-12T14:39:18.423Z,100728.88
2023-05-12T14:44:21.120Z,100738.53
2023-05-12T14:49:23.857Z,100739.53
2023-05-12T14:54:28.218Z,100746.44
2023-05-12T14:59:31.231Z,100745.47
2023-05-12T15:04:33.942Z,100747.13
2023-05-12T15:09:38.013Z,100750.72
2023-05-12T15:14:40.763Z,100753.56
2023-05-12T15:19:43.478Z,100759.25
2023-05-12T15:24:47.576Z,100765.03
2023-05-12T15:29:50.334Z,100764.38
2023-05-12T15:34:53.434Z,100742.13
2023-05-12T15:39:57.488Z,100703.78
2023-05-12T15:45:00.327Z,100685.00
2023-05-12T15:50:03.412Z,100690.34
2023-05-12T15:55:08.609Z,100687.84
2023-05-12T16:00:12.811Z,100694.03
2023-05-12T16:05:18.642Z,100694.09
2023-05-12T16:10:23.127Z,100687.75
2023-05-12T16:15:25.851Z,100698.34
2023-05-12T16:20:28.917Z,100693.59
2023-05-12T16:25:32.967Z,100687.38
2023-05-12T16:30:35.651Z,100693.50
2023-05-12T16:35:38.652Z,100689.78
2023-05-12T16:40:42.772Z,100685.28
2023-05-12T16:45:45.546Z,100682.53
2023-05-12T16:50:48.384Z,100680.59
2023-05-12T16:55:53.551Z,100678.69
2023-05-12T17:00:56.296Z,100682.31
2023-05-12T17:05:59.032Z,100688.44
2023-05-12T17:11:03.122Z,100686.53
2023-05-12T17:16:06.404Z,100687.56
2023-05-12T17:21:10.562Z,100693.91
2023-05-12T17:26:14.587Z,100700.94
2023-05-12T17:31:17.323Z,100704.47
2023-05-12T17:36:20.328Z,100707.09
2023-05-12T17:41:25.127Z,100714.03
2023-05-12T17:46:29.319Z,100707.75
2023-05-12T17:51:32.069Z,100719.38
2023-05-12T17:56:36.557Z,100710.47
2023-05-12T18:01:39.682Z,100708.50
2023-05-12T18:06:42.472Z,100709.22
2023-05-12T18:11:47.416Z,100714.34
2023-05-12T18:16:50.233Z,100714.25
2023-05-12T18:21:53.313Z,100714.88
2023-05-12T18:26:57.477Z,100718.34
2023-05-12T18:32:00.301Z,100728.03
2023-05-12T18:37:03.100Z,100726.88
2023-05-12T18:42:07.565Z,100733.69
2023-05-12T18:47:10.321Z,100729.78
2023-05-12T18:52:13.292Z,100735.88
2023-05-12T18:57:17.826Z,100751.59
2023-05-12T19:02:20.800Z,100757.59
2023-05-12T19:07:23.505Z,100767.00
2023-05-12T19:12:27.731Z,100773.91
2023-05-12T19:17:30.564Z,100777.72
2023-05-12T19:22:33.996Z,100781.69
2023-05-12T19:27:38.124Z,100780.53
2023-05-12T19:32:42.478Z,100786.28
2023-05-12T19:37:45.555Z,100790.22
2023-05-12T19:42:50.328Z,100791.00
2023-05-12T19:47:53.168Z,100793.41
2023-05-12T19:52:56.068Z,100793.22
2023-05-12T19:58:01.945Z,100799.13
2023-05-12T20:03:05.381Z,100798.25
2023-05-12T20:08:08.245Z,100803.19
2023-05-12T20:13:12.294Z,100805.56
2023-05-12T20:18:15.714Z,100807.88
2023-05-12T20:23:18.550Z,100816.66
2023-05-12T20:28:24.366Z,100806.63
2023-05-12T20:33:28.586Z,100809.19
2023-05-12T20:38:35.190Z,100820.47
2023-05-12T20:43:45.155Z,100820.47
2023-05-12T20:48:54.932Z,100829.06
2023-05-12T20:54:02.022Z,100828.72
2023-05-12T20:59:34.623Z,100826.00
2023-05-12T21:04:40.594Z,100828.31
2023-05-12T21:09:47.286Z,100835.28
2023-05-12T21:14:56.431Z,100842.13
2023-05-12T21:19:59.738Z,100832.91
2023-05-12T21:25:04.206Z,100839.63
2023-05-12T21:30:16.883Z,100845.75
2023-05-12T21:35:34.603Z,100844.59
2023-05-12T21:40:41.911Z,100850.41
2023-05-12T21:45:47.637Z,100844.78
2023-05-12T21:51:01.483Z,100845.56
2023-05-12T21:56:07.880Z,100843.72
2023-05-12T22:01:16.760Z,100844.16
2023-05-12T22:06:20.753Z,100855.41
2023-05-12T22:11:24.217Z,100856.22
2023-05-12T22:16:38.545Z,100856.72
2023-05-12T22:21:44.384Z,100853.78
2023-05-12T22:26:47.150Z,100858.94
2023-05-12T22:31:51.403Z,100862.44
2023-05-12T22:36:54.482Z,100866.94
2023-05-12T22:41:57.246Z,100867.28
2023-05-12T22:47:01.387Z,100873.34
2023-05-12T22:52:04.566Z,100868.44
2023-05-12T22:57:07.508Z,100872.25
2023-05-12T23:02:11.620Z,100869.25
2023-05-12T23:07:14.324Z,100865.47
2023-05-12T23:12:17.067Z,100861.81
2023-05-12T23:17:21.558Z,100868.00
2023-05-12T23:22:24.285Z,100864.56
2023-05-12T23:27:27.142Z,100861.88
2023-05-12T23:32:31.528Z,100856.84
2023-05-12T23:37:34.569Z,100849.84
2023-05-12T23:42:37.300Z,100861.09
2023-05-12T23:47:41.470Z,100852.56
2023-05-12T23:52:44.175Z,100850.31
2023-05-12T23:57:46.878Z,100851.94
